Terminal Aerodrome Forecast
Issued by NWS Bismarck, ND

Home | Current Version | Previous Version | Text Only | Print | Product List | Glossary Off
Versions: 1 2 3 4 5 6 7 8 9 10 11 12 13 14 15 16 17

000
FTUS43 KBIS 200534
TAFISN
TAF
KISN 200534Z 2006/2106 VRB03KT P6SM SCT250
     FM201500 17006KT P6SM SCT250
     FM210200 29010KT P6SM SCT250 WS009/30025KT
     FM210500 29016G24KT P6SM SCT200=

USA.gov is the U.S. government's official web portal to all federal, state and local government web resources and services.